createdAt,value
2018-09-04T00:03:21.342Z,19.76
2018-09-04T00:08:17.446Z,19.70
2018-09-04T00:13:12.925Z,19.69
2018-09-04T00:18:09.472Z,19.64
2018-09-04T00:23:05.287Z,19.71
2018-09-04T00:28:01.163Z,19.64
2018-09-04T00:32:57.313Z,19.56
2018-09-04T00:37:54.180Z,19.55
2018-09-04T00:42:51.017Z,19.67
2018-09-04T00:47:46.692Z,19.70
2018-09-04T00:52:42.685Z,19.66
2018-09-04T00:57:38.437Z,19.55
2018-09-04T01:02:34.194Z,19.64
2018-09-04T01:07:31.140Z,19.64
2018-09-04T01:12:28.187Z,19.66
2018-09-04T01:17:23.752Z,19.67
2018-09-04T01:22:20.955Z,19.62
2018-09-04T01:27:17.899Z,19.66
2018-09-04T01:32:13.523Z,19.64
2018-09-04T01:37:09.564Z,19.59
2018-09-04T01:42:06.378Z,19.52
2018-09-04T01:47:01.854Z,19.54
2018-09-04T01:51:57.514Z,19.47
2018-09-04T01:56:53.458Z,19.41
2018-09-04T02:01:49.379Z,19.54
2018-09-04T02:06:45.185Z,19.49
2018-09-04T02:11:40.905Z,19.47
2018-09-04T02:16:37.419Z,19.52
2018-09-04T02:21:33.484Z,19.66
2018-09-04T02:26:29.373Z,19.56
2018-09-04T02:31:25.189Z,19.52
2018-09-04T02:36:21.284Z,19.45
2018-09-04T02:41:17.683Z,19.45
2018-09-04T02:46:13.580Z,19.39
2018-09-04T02:51:09.544Z,19.37
2018-09-04T02:56:05.415Z,19.33
2018-09-04T03:01:01.278Z,19.36
2018-09-04T03:05:57.743Z,19.39
2018-09-04T03:10:53.758Z,19.33
2018-09-04T03:15:49.440Z,19.40
2018-09-04T03:20:45.289Z,19.31
2018-09-04T03:25:42.184Z,19.39
2018-09-04T03:30:38.392Z,19.19
2018-09-04T03:35:34.174Z,19.24
2018-09-04T03:40:31.000Z,19.26
2018-09-04T03:45:26.642Z,19.15
2018-09-04T03:50:22.438Z,19.12
2018-09-04T03:55:18.355Z,19.21
2018-09-04T04:00:14.171Z,19.27
2018-09-04T04:05:10.108Z,19.16
2018-09-04T04:10:06.060Z,19.19
2018-09-04T04:15:01.871Z,19.16
2018-09-04T04:19:59.001Z,19.16
2018-09-04T04:24:54.598Z,19.11
2018-09-04T04:29:50.477Z,19.07
2018-09-04T04:34:46.330Z,19.14
2018-09-04T04:39:42.157Z,19.11
2018-09-04T04:44:38.030Z,19.15
2018-09-04T04:49:33.621Z,19.00
2018-09-04T04:54:30.687Z,19.15
2018-09-04T04:59:26.457Z,19.02
2018-09-04T05:04:23.562Z,19.04
2018-09-04T05:09:19.165Z,19.11
2018-09-04T05:14:15.986Z,19.09
2018-09-04T05:19:11.770Z,19.08
2018-09-04T05:24:08.043Z,18.99
2018-09-04T05:29:04.217Z,19.18
2018-09-04T05:34:00.053Z,19.18
2018-09-04T05:38:55.830Z,19.27
2018-09-04T05:43:52.672Z,19.37
2018-09-04T05:48:48.584Z,19.48
2018-09-04T05:53:44.681Z,19.54
2018-09-04T05:58:40.684Z,19.64
2018-09-04T06:03:37.947Z,19.74
2018-09-04T06:08:33.510Z,19.81
2018-09-04T06:13:29.663Z,19.88
2018-09-04T06:18:26.100Z,19.82
2018-09-04T06:23:22.279Z,19.91
2018-09-04T06:28:18.243Z,20.18
2018-09-04T06:33:15.320Z,20.16
2018-09-04T06:38:11.532Z,20.19
2018-09-04T06:43:07.812Z,20.29
2018-09-04T06:48:04.695Z,20.40
2018-09-04T06:53:00.329Z,20.50
2018-09-04T06:57:56.651Z,20.69
2018-09-04T07:02:52.605Z,20.70
2018-09-04T07:07:48.574Z,20.75
2018-09-04T07:12:44.557Z,20.65
2018-09-04T07:17:40.513Z,20.78
2018-09-04T07:22:36.701Z,20.87
2018-09-04T07:27:32.924Z,21.06
2018-09-04T07:32:29.282Z,20.99
2018-09-04T07:37:26.272Z,20.90
2018-09-04T07:42:21.898Z,20.78
2018-09-04T07:47:18.807Z,20.85
2018-09-04T07:52:14.452Z,20.93
2018-09-04T07:57:10.675Z,21.03
2018-09-04T08:02:06.688Z,21.12
2018-09-04T08:07:03.434Z,21.35
2018-09-04T08:12:00.693Z,21.29
2018-09-04T08:16:56.577Z,21.22
2018-09-04T08:21:53.238Z,21.40
2018-09-04T08:26:49.138Z,21.48
2018-09-04T08:31:46.268Z,21.62
2018-09-04T08:36:42.945Z,21.76
2018-09-04T08:41:38.917Z,21.82
2018-09-04T08:46:35.046Z,21.98
2018-09-04T08:51:32.352Z,22.20
2018-09-04T08:56:28.207Z,22.39
2018-09-04T09:01:24.870Z,22.60
2018-09-04T09:06:21.377Z,22.98
2018-09-04T09:11:18.706Z,23.13
2018-09-04T09:16:15.213Z,23.31
2018-09-04T09:21:11.322Z,23.50
2018-09-04T09:26:08.080Z,23.80
2018-09-04T09:31:04.153Z,24.05
2018-09-04T09:36:00.272Z,24.08
2018-09-04T09:40:57.557Z,24.18
2018-09-04T09:45:54.283Z,24.28
2018-09-04T09:50:50.291Z,24.57
2018-09-04T09:55:46.356Z,24.74
2018-09-04T10:00:42.246Z,24.57
2018-09-04T10:05:39.329Z,24.57
2018-09-04T10:10:34.978Z,24.39
2018-09-04T10:15:32.055Z,24.61
2018-09-04T10:20:29.506Z,25.23
2018-09-04T10:25:26.424Z,25.66
2018-09-04T10:30:23.439Z,26.05
2018-09-04T10:35:19.841Z,26.02
2018-09-04T10:40:16.189Z,26.62
2018-09-04T10:45:12.960Z,27.25
2018-09-04T10:50:09.912Z,27.93
2018-09-04T10:55:06.633Z,28.08
2018-09-04T11:00:03.542Z,28.10
2018-09-04T11:05:01.343Z,28.19
2018-09-04T11:09:57.166Z,27.54
2018-09-04T11:14:53.175Z,27.98
2018-09-04T11:19:49.679Z,28.47
2018-09-04T11:24:46.119Z,28.62
2018-09-04T11:29:42.487Z,28.23
2018-09-04T11:34:38.534Z,28.35
2018-09-04T11:39:34.811Z,28.22
2018-09-04T11:44:30.954Z,27.52
2018-09-04T11:49:26.769Z,27.70
2018-09-04T11:54:24.105Z,28.07
2018-09-04T11:59:20.049Z,28.29
2018-09-04T12:04:15.379Z,27.75
2018-09-04T12:14:09.532Z,26.58
2018-09-04T12:19:05.058Z,26.62
2018-09-04T12:24:01.225Z,26.84
2018-09-04T12:28:56.887Z,26.85
2018-09-04T12:33:53.270Z,26.60
2018-09-04T12:38:48.743Z,26.56
2018-09-04T12:43:44.343Z,26.53
2018-09-04T12:48:40.343Z,26.52
2018-09-04T12:53:36.276Z,26.63
2018-09-04T12:58:32.275Z,26.73
2018-09-04T13:03:28.210Z,26.65
2018-09-04T13:08:24.652Z,26.68
2018-09-04T13:13:20.668Z,26.63
2018-09-04T13:18:16.839Z,26.63
2018-09-04T13:23:12.823Z,26.84
2018-09-04T13:28:09.048Z,27.05
2018-09-04T13:33:06.204Z,27.02
2018-09-04T13:38:01.995Z,26.99
2018-09-04T13:42:57.998Z,27.18
2018-09-04T13:47:54.892Z,26.99
2018-09-04T13:52:50.586Z,27.17
2018-09-04T13:57:46.570Z,27.33
2018-09-04T14:02:42.851Z,27.42
2018-09-04T14:07:39.087Z,27.25
2018-09-04T14:12:36.191Z,27.37
2018-09-04T14:17:32.074Z,27.54
2018-09-04T14:22:29.241Z,27.70
2018-09-04T14:27:26.259Z,27.87
2018-09-04T14:32:22.324Z,27.86
2018-09-04T14:37:18.647Z,28.04
2018-09-04T14:42:14.860Z,27.98
2018-09-04T14:47:10.874Z,27.93
2018-09-04T14:52:06.629Z,27.71
2018-09-04T14:57:03.476Z,26.63
2018-09-04T15:01:58.675Z,25.50
2018-09-04T15:06:53.988Z,25.06
2018-09-04T15:11:50.279Z,24.86
2018-09-04T15:16:45.592Z,24.54
2018-09-04T15:21:41.156Z,24.50
2018-09-04T15:26:37.046Z,24.42
2018-09-04T15:31:33.098Z,24.39
2018-09-04T15:36:29.803Z,24.18
2018-09-04T15:41:25.453Z,24.33
2018-09-04T15:46:22.323Z,24.39
2018-09-04T15:51:18.284Z,24.43
2018-09-04T15:56:14.172Z,24.58
2018-09-04T16:01:10.320Z,24.61
2018-09-04T16:06:06.602Z,24.61
2018-09-04T16:11:02.946Z,24.68
2018-09-04T16:15:59.103Z,24.68
2018-09-04T16:20:55.108Z,24.78
2018-09-04T16:25:52.133Z,24.84
2018-09-04T16:30:49.331Z,24.86
2018-09-04T16:35:44.915Z,24.91
2018-09-04T16:40:40.743Z,24.92
2018-09-04T16:45:37.614Z,24.85
2018-09-04T16:50:33.159Z,24.89
2018-09-04T16:55:30.245Z,25.01
2018-09-04T17:00:25.982Z,25.03
2018-09-04T17:05:21.987Z,25.03
2018-09-04T17:10:18.219Z,24.89
2018-09-04T17:15:13.972Z,24.84
2018-09-04T17:20:10.380Z,24.66
2018-09-04T17:25:06.260Z,24.55
2018-09-04T17:30:02.329Z,24.26
2018-09-04T17:34:58.042Z,24.17
2018-09-04T17:39:54.858Z,24.10
2018-09-04T17:44:50.819Z,24.02
2018-09-04T17:49:47.482Z,24.01
2018-09-04T17:54:42.772Z,24.02
2018-09-04T17:59:39.037Z,23.87
2018-09-04T18:04:35.147Z,23.78
2018-09-04T18:09:30.879Z,23.78
2018-09-04T18:14:27.033Z,23.59
2018-09-04T18:19:22.727Z,23.48
2018-09-04T18:24:19.025Z,23.54
2018-09-04T18:29:15.967Z,23.48
2018-09-04T18:34:11.304Z,23.28
2018-09-04T18:39:07.440Z,23.24
2018-09-04T18:44:02.998Z,23.27
2018-09-04T18:49:00.063Z,23.17
2018-09-04T18:53:55.649Z,22.96
2018-09-04T18:58:51.416Z,22.85
2018-09-04T19:03:47.326Z,22.81
2018-09-04T19:08:43.337Z,22.84
2018-09-04T19:13:39.164Z,22.70
2018-09-04T19:18:34.976Z,22.80
2018-09-04T19:23:31.247Z,22.73
2018-09-04T19:28:27.090Z,22.73
2018-09-04T19:33:23.368Z,22.57
2018-09-04T19:38:19.267Z,22.59
2018-09-04T19:43:15.329Z,22.44
2018-09-04T19:48:12.186Z,22.41
2018-09-04T19:53:08.796Z,22.22
2018-09-04T19:58:04.457Z,22.13
2018-09-04T20:03:00.189Z,21.89
2018-09-04T20:07:55.928Z,21.76
2018-09-04T20:12:52.065Z,21.77
2018-09-04T20:17:47.994Z,21.79
2018-09-04T20:22:44.077Z,21.77
2018-09-04T20:27:39.667Z,21.76
2018-09-04T20:32:36.588Z,21.77
2018-09-04T20:37:33.510Z,21.64
2018-09-04T20:42:29.137Z,21.60
2018-09-04T20:47:25.138Z,21.55
2018-09-04T20:52:22.026Z,21.50
2018-09-04T20:57:17.789Z,21.33
2018-09-04T21:02:13.834Z,21.18
2018-09-04T21:07:09.887Z,21.11
2018-09-04T21:12:05.816Z,21.11
2018-09-04T21:17:02.973Z,21.25
2018-09-04T21:21:58.609Z,21.32
2018-09-04T21:26:54.602Z,21.27
2018-09-04T21:31:50.416Z,21.05
2018-09-04T21:36:46.123Z,20.99
2018-09-04T21:41:41.930Z,20.96
2018-09-04T21:46:37.583Z,21.05
2018-09-04T21:51:33.848Z,20.97
2018-09-04T21:56:31.096Z,20.97
2018-09-04T22:01:26.455Z,20.80
2018-09-04T22:06:22.345Z,20.87
2018-09-04T22:11:17.980Z,20.77
2018-09-04T22:16:13.941Z,20.81
2018-09-04T22:21:10.865Z,20.77
2018-09-04T22:26:06.475Z,20.63
2018-09-04T22:31:03.448Z,20.70
2018-09-04T22:35:58.989Z,20.48
2018-09-04T22:40:54.867Z,20.40
2018-09-04T22:45:50.704Z,20.40
2018-09-04T22:50:46.758Z,20.26
2018-09-04T22:55:42.613Z,20.24
2018-09-04T23:00:38.814Z,20.22
2018-09-04T23:05:35.609Z,20.31
2018-09-04T23:10:32.089Z,20.18
2018-09-04T23:15:27.678Z,20.06
2018-09-04T23:20:23.479Z,20.00
2018-09-04T23:25:20.458Z,19.99
2018-09-04T23:30:16.110Z,20.03
2018-09-04T23:35:13.077Z,19.91
2018-09-04T23:40:08.490Z,19.70
2018-09-04T23:45:04.099Z,19.69
2018-09-04T23:49:59.818Z,19.56
2018-09-04T23:54:56.717Z,19.58
2018-09-04T23:59:53.912Z,19.58
